createdAt,value
2019-04-23T00:01:26.918Z,11.15
2019-04-23T00:06:32.279Z,11.39
2019-04-23T00:11:39.633Z,12.02
2019-04-23T00:16:45.947Z,11.40
2019-04-23T00:21:52.227Z,11.59
2019-04-23T00:27:19.534Z,12.53
2019-04-23T00:32:18.409Z,13.06
2019-04-23T00:37:25.697Z,14.44
2019-04-23T00:42:39.559Z,13.25
2019-04-23T00:47:38.524Z,13.33
2019-04-23T00:52:46.236Z,16.08
2019-04-23T00:58:03.159Z,14.33
2019-04-23T01:03:10.374Z,13.96
2019-04-23T01:13:23.061Z,13.42
2019-04-23T01:18:38.235Z,16.33
2019-04-23T01:23:20.611Z,14.58
2019-04-23T01:28:57.368Z,15.14
2019-04-23T01:33:56.635Z,14.98
2019-04-23T01:39:11.833Z,15.53
2019-04-23T01:44:22.201Z,14.62
2019-04-23T01:49:30.974Z,15.18
2019-04-23T01:59:45.839Z,13.54
2019-04-23T02:10:07.129Z,15.69
2019-04-23T02:15:03.677Z,15.47
2019-04-23T02:31:21.412Z,16.16
2019-04-23T02:35:46.319Z,16.22
2019-04-23T02:41:04.329Z,16.69
2019-04-23T02:50:54.047Z,15.55
2019-04-23T02:56:06.886Z,14.79
2019-04-23T03:06:30.046Z,15.77
2019-04-23T03:11:41.103Z,15.54
2019-04-23T03:57:58.027Z,15.86
2019-04-23T04:13:11.863Z,15.12
2019-04-23T04:18:47.226Z,17.12
2019-04-23T04:28:38.391Z,17.88
2019-04-23T04:38:39.955Z,15.65
2019-04-23T04:43:50.849Z,18.09
2019-04-23T04:48:56.168Z,16.63
2019-04-23T04:54:17.874Z,15.40
2019-04-23T05:04:26.860Z,16.19
2019-04-23T05:09:29.402Z,14.79
2019-04-23T05:19:53.317Z,14.69
2019-04-23T05:24:51.062Z,17.64
2019-04-23T05:35:20.221Z,18.65
2019-04-23T05:40:30.522Z,19.58
2019-04-23T05:55:55.483Z,14.28
2019-04-23T06:01:05.686Z,19.43
2019-04-23T06:16:18.193Z,16.09
2019-04-23T06:37:03.514Z,15.07
2019-04-23T06:47:03.186Z,16.64
2019-04-23T06:52:14.954Z,19.67
2019-04-23T06:57:22.196Z,20.59
2019-04-23T07:02:22.264Z,20.21
2019-04-23T07:12:33.643Z,21.09
2019-04-23T07:17:25.102Z,18.12
2019-04-23T07:22:32.285Z,17.63
2019-04-23T07:27:30.547Z,19.06
2019-04-23T07:32:23.287Z,14.00
2019-04-23T07:37:43.184Z,16.71
2019-04-23T07:47:51.936Z,15.54
2019-04-23T07:52:51.517Z,15.07
2019-04-23T07:58:04.422Z,14.51
2019-04-23T08:02:43.795Z,16.94
2019-04-23T08:08:03.132Z,15.60
2019-04-23T08:13:08.564Z,16.31
2019-04-23T08:17:58.601Z,14.08
2019-04-23T08:22:55.476Z,16.90
2019-04-23T08:28:10.003Z,16.46
2019-04-23T08:33:12.263Z,12.15
2019-04-23T08:38:20.954Z,15.80
2019-04-23T08:43:20.268Z,14.59
2019-04-23T08:48:42.960Z,15.85
2019-04-23T08:53:40.731Z,14.27
2019-04-23T08:58:41.592Z,16.59
2019-04-23T09:04:00.509Z,19.83
2019-04-23T09:08:54.800Z,18.57
2019-04-23T09:13:53.229Z,17.19
2019-04-23T09:18:52.820Z,19.78
2019-04-23T09:24:00.213Z,19.31
2019-04-23T09:29:28.015Z,18.14
2019-04-23T09:34:26.171Z,18.10
2019-04-23T10:00:03.275Z,17.66
2019-04-23T10:04:59.854Z,18.71
2019-04-23T10:09:49.691Z,19.26
2019-04-23T10:15:05.407Z,18.12
2019-04-23T10:20:08.574Z,20.98
2019-04-23T10:25:17.178Z,17.21
2019-04-23T10:30:25.062Z,18.40
2019-04-23T10:35:41.413Z,22.34
2019-04-23T10:40:46.871Z,16.79
2019-04-23T10:46:16.298Z,17.19
2019-04-23T10:51:34.069Z,19.06
2019-04-23T10:56:42.627Z,17.66
2019-04-23T11:02:40.385Z,15.99
2019-04-23T11:11:48.398Z,17.47
2019-04-23T11:17:03.996Z,13.85
2019-04-23T11:22:35.813Z,15.37
2019-04-23T11:37:40.953Z,16.77
2019-04-23T11:38:15.814Z,14.42
2019-04-23T11:57:52.688Z,12.64
2019-04-23T12:07:50.915Z,13.76
2019-04-23T12:12:57.883Z,10.99
2019-04-23T12:18:14.812Z,15.67
2019-04-23T12:23:31.897Z,15.93
2019-04-23T12:38:31.277Z,14.81
2019-04-23T12:44:14.926Z,13.36
2019-04-23T13:00:05.102Z,11.01
2019-04-23T13:04:18.278Z,13.75
2019-04-23T13:14:25.210Z,10.44
2019-04-23T13:29:56.854Z,12.16
2019-04-23T13:35:22.071Z,11.78
2019-04-23T13:40:19.933Z,13.22
2019-04-23T13:50:49.988Z,13.09
2019-04-23T13:55:24.850Z,12.84
2019-04-23T14:00:52.263Z,11.52
2019-04-23T14:05:52.143Z,14.29
2019-04-23T14:10:44.856Z,10.58
2019-04-23T14:16:05.982Z,12.49
2019-04-23T14:21:16.684Z,11.60
2019-04-23T14:26:29.566Z,11.52
2019-04-23T14:31:24.948Z,12.66
2019-04-23T14:36:39.342Z,10.95
2019-04-23T14:41:53.355Z,13.33
2019-04-23T14:47:11.986Z,10.86
2019-04-23T14:52:12.331Z,10.83
2019-04-23T14:57:24.799Z,10.84
2019-04-23T15:07:33.825Z,11.09
2019-04-23T15:12:48.744Z,11.23
2019-04-23T15:18:01.565Z,8.46
2019-04-23T15:23:10.730Z,10.31
2019-04-23T15:28:06.847Z,10.07
2019-04-23T15:33:27.997Z,9.47
2019-04-23T15:38:43.031Z,15.50
2019-04-23T15:43:34.360Z,8.95
2019-04-23T15:48:58.885Z,9.59
2019-04-23T15:53:48.581Z,13.29
2019-04-23T16:03:47.310Z,11.65
2019-04-23T16:09:06.445Z,9.46
2019-04-23T16:14:35.631Z,11.29
2019-04-23T16:24:51.877Z,8.91
2019-04-23T16:29:57.413Z,10.65
2019-04-23T16:35:19.387Z,12.30
2019-04-23T16:40:20.945Z,12.64
2019-04-23T16:45:27.040Z,10.81
2019-04-23T16:50:31.054Z,11.18
2019-04-23T17:00:59.898Z,11.87
2019-04-23T17:11:09.657Z,8.97
2019-04-23T17:16:16.743Z,13.37
2019-04-23T17:21:23.386Z,11.19
2019-04-23T17:26:28.714Z,14.74
2019-04-23T17:31:38.316Z,12.62
2019-04-23T17:36:38.514Z,15.52
2019-04-23T17:42:05.484Z,12.76
2019-04-23T17:52:18.494Z,15.12
2019-04-23T17:57:22.885Z,15.75
2019-04-23T18:07:52.224Z,14.34
2019-04-23T18:12:40.541Z,14.17
2019-04-23T18:22:53.938Z,14.22
2019-04-23T18:33:40.668Z,13.33
2019-04-23T18:38:25.367Z,14.15
2019-04-23T18:43:26.784Z,16.03
2019-04-23T18:48:44.113Z,18.27
2019-04-23T18:53:52.720Z,10.67
2019-04-23T18:59:00.403Z,15.27
2019-04-23T19:09:16.242Z,17.01
2019-04-23T19:14:32.168Z,12.76
2019-04-23T19:19:40.607Z,16.40
2019-04-23T19:24:31.554Z,13.57
2019-04-23T19:34:46.877Z,13.80
2019-04-23T19:40:04.788Z,13.58
2019-04-23T19:45:24.559Z,16.98
2019-04-23T19:50:32.900Z,15.34
2019-04-23T19:55:53.658Z,16.40
2019-04-23T20:01:03.723Z,14.03
2019-04-23T20:05:47.107Z,15.21
2019-04-23T20:11:04.525Z,17.44
2019-04-23T20:16:05.670Z,19.52
2019-04-23T20:21:15.997Z,14.93
2019-04-23T20:26:22.569Z,18.38
2019-04-23T20:32:53.672Z,19.37
2019-04-23T20:36:49.398Z,15.89
2019-04-23T20:47:04.815Z,15.88
2019-04-23T20:52:04.685Z,16.29
2019-04-23T20:57:31.662Z,20.20
2019-04-23T21:07:54.142Z,17.76
2019-04-23T21:12:58.233Z,21.16
2019-04-23T21:18:06.134Z,23.52
2019-04-23T21:23:09.294Z,26.00
2019-04-23T21:28:17.836Z,22.58
2019-04-23T21:33:11.686Z,20.52
2019-04-23T21:38:46.302Z,21.63
2019-04-23T21:44:00.533Z,27.25
2019-04-23T21:53:46.063Z,15.57
2019-04-23T21:58:57.921Z,23.11
2019-04-23T22:09:21.855Z,23.37
2019-04-23T22:14:38.379Z,25.54
2019-04-23T22:19:38.403Z,23.12
2019-04-23T22:24:48.795Z,23.43
2019-04-23T22:29:43.311Z,18.58
2019-04-23T22:35:07.359Z,21.31
2019-04-23T22:40:10.069Z,20.20
2019-04-23T22:45:26.833Z,20.79
2019-04-23T22:50:29.660Z,20.02
2019-04-23T23:00:46.388Z,18.64
2019-04-23T23:11:02.354Z,23.16
2019-04-23T23:16:06.803Z,24.93
2019-04-23T23:21:20.229Z,20.88
2019-04-23T23:26:34.975Z,23.52
2019-04-23T23:31:46.614Z,27.80
2019-04-23T23:42:03.665Z,23.93
2019-04-23T23:47:04.407Z,25.37
2019-04-23T23:52:02.856Z,23.80
2019-04-23T23:57:21.394Z,25.16
